Time;durP1;ratioP1;P1;durP2;ratioP2;P2;SDS_P1;SDS_P2;PMS_P1;PMS_P2;Temp;Humidity;BMP_temperature;BMP_pressure;BME280_temperature;BME280_humidity;BME280_pressure;Samples;Min_cycle;Max_cycle;Signal;HPM_P1;HPM_P2
2021/12/23 00:00:38;;;;;;;;;3.00;3.00;;;;;;;;5265741;28;10970;-69
2021/12/23 00:03:10;;;;;;;;;3.25;3.25;;;;;;;;5269576;28;11068;-69
2021/12/23 00:05:41;;;;;;;;;3.25;3.25;;;;;;;;5269913;28;11490;-69
2021/12/23 00:08:12;;;;;;;;;3.50;3.50;;;;;;;;5270002;28;11464;-70
2021/12/23 00:10:44;;;;;;;;;1.00;1.00;;;;;;;;5252909;28;11467;-69
2021/12/23 00:13:15;;;;;;;;;2.50;2.50;;;;;;;;5269671;28;10970;-69
2021/12/23 00:16:03;;;;;;;;;2.00;2.00;;;;;;;;5269934;28;11869;-69
2021/12/23 00:24:01;;;;;;;;;3.00;3.00;;;;;;;;5288216;28;11364;-69
2021/12/23 00:26:32;;;;;;;;;1.50;1.50;;;;;;;;5269666;28;11261;-69
2021/12/23 00:29:04;;;;;;;;;2.50;2.50;;;;;;;;5269871;28;11118;-69
2021/12/23 00:31:36;;;;;;;;;1.00;1.00;;;;;;;;5252979;28;11363;-69
2021/12/23 00:34:09;;;;;;;;;6.00;6.00;;;;;;;;5253054;28;11389;-69
2021/12/23 00:36:44;;;;;;;;;3.50;3.50;;;;;;;;5253013;28;11379;-68
2021/12/23 00:39:16;;;;;;;;;2.50;2.50;;;;;;;;5270975;28;11481;-68
2021/12/23 00:41:48;;;;;;;;;4.50;4.50;;;;;;;;5269627;28;11385;-69
2021/12/23 00:44:47;;;;;;;;;3.25;3.25;;;;;;;;5272396;28;11408;-69
2021/12/23 00:47:18;;;;;;;;;1.00;1.00;;;;;;;;5252979;28;11313;-70
2021/12/23 00:50:08;;;;;;;;;1.50;1.50;;;;;;;;5269846;28;11140;-70
2021/12/23 00:52:40;;;;;;;;;2.00;2.00;;;;;;;;5272600;28;11454;-70
2021/12/23 00:55:12;;;;;;;;;3.75;3.75;;;;;;;;5291324;28;11768;-71
2021/12/23 00:57:43;;;;;;;;;4.00;4.00;;;;;;;;5291378;28;11429;-68
2021/12/23 01:00:18;;;;;;;;;3.00;3.00;;;;;;;;5256827;28;11349;-69
2021/12/23 01:02:49;;;;;;;;;6.00;6.00;;;;;;;;5256581;28;11409;-68
2021/12/23 01:05:21;;;;;;;;;5.00;5.00;;;;;;;;5273696;28;11381;-68
2021/12/23 01:08:11;;;;;;;;;4.00;4.00;;;;;;;;5291099;28;11345;-68
2021/12/23 01:10:42;;;;;;;;;9.50;9.50;;;;;;;;5272935;28;11394;-68
2021/12/23 01:13:14;;;;;;;;;6.00;6.00;;;;;;;;5273548;28;8787;-68
2021/12/23 01:18:37;;;;;;;;;6.50;6.50;;;;;;;;5291324;28;11393;-69
2021/12/23 01:21:16;;;;;;;;;12.75;12.75;;;;;;;;5272983;28;11339;-69
2021/12/23 01:23:49;;;;;;;;;9.25;9.25;;;;;;;;5273032;28;11399;-69
2021/12/23 01:26:22;;;;;;;;;7.50;7.50;;;;;;;;5290611;28;11370;-69
2021/12/23 01:28:56;;;;;;;;;8.75;8.75;;;;;;;;5272570;28;11342;-69
2021/12/23 01:31:29;;;;;;;;;8.00;8.00;;;;;;;;5272788;28;11409;-68
2021/12/23 01:34:01;;;;;;;;;10.75;10.75;;;;;;;;5290796;28;11351;-69
2021/12/23 01:36:32;;;;;;;;;12.75;12.75;;;;;;;;5290518;28;12142;-69
2021/12/23 01:39:03;;;;;;;;;4.00;4.00;;;;;;;;5290660;28;11409;-69
2021/12/23 01:41:34;;;;;;;;;6.00;6.00;;;;;;;;5272800;28;11404;-69
2021/12/23 01:44:06;;;;;;;;;3.00;3.00;;;;;;;;5271946;28;11532;-68
2021/12/23 01:46:37;;;;;;;;;7.00;7.00;;;;;;;;5272368;28;12037;-69
2021/12/23 01:49:08;;;;;;;;;11.00;10.50;;;;;;;;5272941;28;12055;-69
2021/12/23 01:51:39;;;;;;;;;5.00;3.75;;;;;;;;5290436;28;11326;-69
2021/12/23 01:54:10;;;;;;;;;4.75;4.75;;;;;;;;5272399;28;8764;-69
2021/12/23 01:56:59;;;;;;;;;6.00;6.00;;;;;;;;5290392;28;11333;-67
2021/12/23 01:59:32;;;;;;;;;11.00;11.00;;;;;;;;5272153;28;11358;-66
2021/12/23 02:02:03;;;;;;;;;9.75;9.75;;;;;;;;5272404;28;11397;-66
2021/12/23 02:04:34;;;;;;;;;12.50;12.50;;;;;;;;5254743;28;11384;-67
2021/12/23 02:07:05;;;;;;;;;10.50;10.50;;;;;;;;5289858;28;11407;-68
2021/12/23 02:09:36;;;;;;;;;13.50;13.50;;;;;;;;5290711;28;8768;-68
2021/12/23 02:12:08;;;;;;;;;21.50;21.50;;;;;;;;5271980;28;11434;-67
2021/12/23 02:14:38;;;;;;;;;19.50;18.25;;;;;;;;5289738;28;8804;-67
2021/12/23 02:17:09;;;;;;;;;11.50;11.50;;;;;;;;5271888;28;11468;-67
2021/12/23 02:19:40;;;;;;;;;10.00;10.00;;;;;;;;5290076;28;8789;-68
2021/12/23 02:22:11;;;;;;;;;12.75;12.75;;;;;;;;5290656;28;9423;-68
2021/12/23 02:24:42;;;;;;;;;9.25;9.25;;;;;;;;5271474;28;8811;-68
2021/12/23 02:27:13;;;;;;;;;11.25;11.25;;;;;;;;5254457;28;11383;-68
2021/12/23 02:30:04;;;;;;;;;5.00;4.50;;;;;;;;5290337;28;8760;-68
2021/12/23 02:32:55;;;;;;;;;6.25;6.25;;;;;;;;5289719;28;12026;-69
2021/12/23 02:35:26;;;;;;;;;6.50;6.50;;;;;;;;5290146;28;11343;-70
2021/12/23 02:38:15;;;;;;;;;9.00;9.00;;;;;;;;5274586;28;11344;-69
2021/12/23 02:40:47;;;;;;;;;10.75;6.50;;;;;;;;5289125;28;12113;-69
2021/12/23 02:43:22;;;;;;;;;7.75;6.00;;;;;;;;5271316;28;11479;-68
2021/12/23 02:45:55;;;;;;;;;10.50;10.00;;;;;;;;5254228;28;11386;-70
2021/12/23 02:48:34;;;;;;;;;3.00;3.00;;;;;;;;5256024;28;11393;-70
2021/12/23 02:51:10;;;;;;;;;4.00;4.00;;;;;;;;5259651;28;11308;-70
2021/12/23 02:53:42;;;;;;;;;2.50;2.50;;;;;;;;5279447;28;11333;-70
2021/12/23 02:56:15;;;;;;;;;3.00;3.00;;;;;;;;5299423;28;11372;-70
2021/12/23 02:58:47;;;;;;;;;3.00;3.00;;;;;;;;5265281;28;11464;-71
2021/12/23 03:01:20;;;;;;;;;3.75;3.75;;;;;;;;5300040;28;11448;-70
2021/12/23 03:03:51;;;;;;;;;2.00;2.00;;;;;;;;5247429;28;11383;-69
2021/12/23 03:06:22;;;;;;;;;0.00;0.00;;;;;;;;5280501;28;11354;-69
2021/12/23 03:09:02;;;;;;;;;4.00;4.00;;;;;;;;5277511;28;11326;-68
2021/12/23 03:11:34;;;;;;;;;2.50;2.50;;;;;;;;5278130;27;11328;-70
2021/12/23 03:14:05;;;;;;;;;1.50;1.50;;;;;;;;5321136;27;11324;-70
2021/12/23 03:16:38;;;;;;;;;3.50;3.50;;;;;;;;5285499;27;11335;-70
2021/12/23 03:19:09;;;;;;;;;0.00;0.00;;;;;;;;5303114;27;11367;-70
2021/12/23 03:21:40;;;;;;;;;8.25;8.25;;;;;;;;5313454;27;11318;-70
2021/12/23 03:24:12;;;;;;;;;20.75;20.25;;;;;;;;5310821;27;8782;-70
2021/12/23 03:26:44;;;;;;;;;28.50;28.00;;;;;;;;5292372;27;11460;-68
2021/12/23 03:29:15;;;;;;;;;31.25;31.25;;;;;;;;5309764;27;11472;-68
2021/12/23 03:31:46;;;;;;;;;18.50;18.50;;;;;;;;5309592;27;8793;-67
2021/12/23 03:34:17;;;;;;;;;30.75;30.75;;;;;;;;5292096;27;8770;-67
2021/12/23 03:36:47;;;;;;;;;29.75;22.25;;;;;;;;5309595;27;8762;-67
2021/12/23 03:39:19;;;;;;;;;35.25;35.00;;;;;;;;5307318;27;11445;-67
2021/12/23 03:41:51;;;;;;;;;36.25;29.50;;;;;;;;5271551;28;8766;-70
2021/12/23 03:44:22;;;;;;;;;25.00;25.00;;;;;;;;5249582;28;12464;-70
2021/12/23 03:46:52;;;;;;;;;15.25;15.00;;;;;;;;5267364;28;11611;-71
2021/12/23 03:49:23;;;;;;;;;12.25;11.00;;;;;;;;5267296;28;9538;-71
2021/12/23 03:51:55;;;;;;;;;6.00;6.00;;;;;;;;5287188;28;8766;-72
2021/12/23 03:54:25;;;;;;;;;14.00;14.00;;;;;;;;5270653;28;11378;-70
2021/12/23 03:56:56;;;;;;;;;14.00;14.00;;;;;;;;5270510;28;11424;-70
2021/12/23 03:59:27;;;;;;;;;15.00;13.50;;;;;;;;5269884;28;11456;-70
2021/12/23 04:02:17;;;;;;;;;13.50;12.75;;;;;;;;5287138;28;8837;-70
2021/12/23 04:04:48;;;;;;;;;9.75;9.75;;;;;;;;5288312;28;11548;-70
2021/12/23 04:07:19;;;;;;;;;18.00;15.50;;;;;;;;5288221;28;11478;-70
2021/12/23 04:09:49;;;;;;;;;11.75;11.75;;;;;;;;5275951;28;9530;-69
2021/12/23 04:12:21;;;;;;;;;17.00;17.00;;;;;;;;5267112;28;8783;-69
2021/12/23 04:14:53;;;;;;;;;13.50;13.50;;;;;;;;5259294;28;11426;-69
2021/12/23 04:17:24;;;;;;;;;14.00;14.00;;;;;;;;5277104;28;11579;-69
2021/12/23 04:20:03;;;;;;;;;1.00;1.00;;;;;;;;5266134;28;11481;-69
2021/12/23 04:22:34;;;;;;;;;1.00;1.00;;;;;;;;5265924;28;11482;-70
2021/12/23 04:25:06;;;;;;;;;6.50;6.50;;;;;;;;5267058;28;11416;-69
2021/12/23 04:27:37;;;;;;;;;12.75;12.75;;;;;;;;5251951;28;9486;-69
2021/12/23 04:30:08;;;;;;;;;7.00;6.50;;;;;;;;5270689;28;11460;-69
2021/12/23 04:32:40;;;;;;;;;3.25;3.25;;;;;;;;5269647;28;11503;-69
2021/12/23 04:35:12;;;;;;;;;13.50;13.50;;;;;;;;5287744;28;11378;-70
2021/12/23 04:37:43;;;;;;;;;11.50;11.00;;;;;;;;5273329;28;11601;-69
2021/12/23 04:40:14;;;;;;;;;22.50;22.50;;;;;;;;5273735;28;11468;-69
2021/12/23 04:42:46;;;;;;;;;19.00;15.50;;;;;;;;5290906;28;11501;-69
2021/12/23 04:45:35;;;;;;;;;14.50;12.25;;;;;;;;5290028;28;11455;-69
2021/12/23 04:48:07;;;;;;;;;7.50;7.50;;;;;;;;5290758;28;11448;-69
2021/12/23 04:50:38;;;;;;;;;9.00;9.00;;;;;;;;5291337;28;11487;-69
2021/12/23 04:53:27;;;;;;;;;28.00;23.75;;;;;;;;5291679;28;11489;-69
2021/12/23 04:55:58;;;;;;;;;17.00;17.00;;;;;;;;5290245;28;12109;-69
2021/12/23 04:58:28;;;;;;;;;15.75;15.75;;;;;;;;5290112;28;8809;-69
2021/12/23 05:01:27;;;;;;;;;15.50;15.50;;;;;;;;5291738;28;8800;-68
2021/12/23 05:03:58;;;;;;;;;16.75;12.00;;;;;;;;5269284;28;11536;-68
2021/12/23 05:06:29;;;;;;;;;21.75;17.00;;;;;;;;5269044;28;11465;-68
2021/12/23 05:09:00;;;;;;;;;16.00;15.00;;;;;;;;5270673;28;11447;-68
2021/12/23 05:11:31;;;;;;;;;26.25;26.25;;;;;;;;5268987;28;8777;-68
2021/12/23 05:14:02;;;;;;;;;40.75;38.75;;;;;;;;5269433;28;8816;-68
2021/12/23 05:16:33;;;;;;;;;46.50;41.00;;;;;;;;5268774;28;8800;-68
2021/12/23 05:19:04;;;;;;;;;21.75;18.00;;;;;;;;5270368;28;8796;-71
2021/12/23 05:21:34;;;;;;;;;40.25;34.00;;;;;;;;5272072;28;11550;-68
2021/12/23 05:32:19;;;;;;;;;15.25;15.25;;;;;;;;5269286;28;11527;-68
2021/12/23 05:34:50;;;;;;;;;13.50;13.50;;;;;;;;5269539;28;11564;-68
2021/12/23 05:37:21;;;;;;;;;12.25;12.00;;;;;;;;5267807;28;11476;-67
2021/12/23 05:39:52;;;;;;;;;24.25;23.50;;;;;;;;5269427;28;8788;-67
2021/12/23 05:42:23;;;;;;;;;26.00;23.00;;;;;;;;5268612;28;11490;-68
2021/12/23 05:44:54;;;;;;;;;29.00;26.00;;;;;;;;5280311;28;9530;-67
2021/12/23 05:47:25;;;;;;;;;27.50;27.50;;;;;;;;5290737;28;11447;-64
2021/12/23 05:49:56;;;;;;;;;20.75;17.75;;;;;;;;5271987;27;9455;-67
2021/12/23 05:52:27;;;;;;;;;14.00;13.00;;;;;;;;5291861;27;11487;-67
2021/12/23 05:55:02;;;;;;;;;21.00;21.00;;;;;;;;5293211;27;8794;-67
2021/12/23 05:57:35;;;;;;;;;31.75;31.75;;;;;;;;5262162;28;11593;-67
2021/12/23 06:00:17;;;;;;;;;20.75;20.75;;;;;;;;5271752;28;11445;-66
2021/12/23 06:02:48;;;;;;;;;16.75;16.50;;;;;;;;5290153;28;11557;-68
2021/12/23 06:05:19;;;;;;;;;22.75;22.75;;;;;;;;5271610;28;11492;-66
2021/12/23 06:07:50;;;;;;;;;19.75;18.75;;;;;;;;5290262;28;11488;-66
2021/12/23 06:10:21;;;;;;;;;8.25;8.25;;;;;;;;5289932;28;11443;-66
2021/12/23 06:12:52;;;;;;;;;19.25;16.50;;;;;;;;5272138;28;8776;-66
2021/12/23 06:15:22;;;;;;;;;12.00;11.50;;;;;;;;5254924;28;12286;-66
2021/12/23 06:22:18;;;;;;;;;9.00;9.00;;;;;;;;5289734;28;8713;-65
2021/12/23 06:25:09;;;;;;;;;23.25;23.25;;;;;;;;5274264;28;11407;-65
2021/12/23 06:27:41;;;;;;;;;12.25;12.25;;;;;;;;5271451;28;11423;-65
2021/12/23 06:30:23;;;;;;;;;15.25;13.50;;;;;;;;5238573;28;11401;-65
2021/12/23 06:32:56;;;;;;;;;5.25;5.25;;;;;;;;5289664;28;12074;-65
2021/12/23 06:35:27;;;;;;;;;12.75;12.00;;;;;;;;5271283;28;11376;-65
2021/12/23 06:38:03;;;;;;;;;21.75;20.75;;;;;;;;5271116;28;12192;-65
2021/12/23 06:40:34;;;;;;;;;7.25;7.00;;;;;;;;5290524;28;11444;-65
2021/12/23 06:43:05;;;;;;;;;14.00;14.00;;;;;;;;5270982;28;11477;-65
2021/12/23 06:45:37;;;;;;;;;12.75;12.75;;;;;;;;5270910;28;11433;-65
2021/12/23 06:48:08;;;;;;;;;16.00;15.00;;;;;;;;5289184;28;11388;-66
2021/12/23 06:50:38;;;;;;;;;13.25;13.25;;;;;;;;5270239;28;8808;-65
2021/12/23 06:53:12;;;;;;;;;13.00;13.00;;;;;;;;5271477;28;8761;-65
2021/12/23 06:55:43;;;;;;;;;12.00;12.00;;;;;;;;5289925;28;11396;-65
2021/12/23 06:58:14;;;;;;;;;9.00;9.00;;;;;;;;5288729;28;11407;-66
2021/12/23 07:00:45;;;;;;;;;18.50;17.25;;;;;;;;5289353;28;8768;-66
2021/12/23 07:03:17;;;;;;;;;12.75;12.75;;;;;;;;5254552;28;8787;-66
2021/12/23 07:05:56;;;;;;;;;32.50;27.75;;;;;;;;5288795;28;11440;-65
2021/12/23 07:08:29;;;;;;;;;48.25;44.50;;;;;;;;5271149;28;8926;-66
2021/12/23 07:11:01;;;;;;;;;46.25;44.00;;;;;;;;5254123;28;11505;-66
2021/12/23 07:13:32;;;;;;;;;45.25;38.75;;;;;;;;5270831;28;11478;-66
2021/12/23 07:16:22;;;;;;;;;28.75;25.25;;;;;;;;5288665;28;9459;-65
2021/12/23 07:18:53;;;;;;;;;24.75;23.75;;;;;;;;5288399;28;11457;-66
2021/12/23 07:21:24;;;;;;;;;29.50;28.00;;;;;;;;5288696;28;9605;-65
2021/12/23 07:23:54;;;;;;;;;47.50;45.50;;;;;;;;5288463;28;11621;-66
2021/12/23 07:26:26;;;;;;;;;55.75;49.50;;;;;;;;5288883;28;8784;-65
2021/12/23 07:28:57;;;;;;;;;24.50;21.25;;;;;;;;5254053;28;9598;-66
2021/12/23 07:31:28;;;;;;;;;31.50;31.50;;;;;;;;5270196;28;11438;-66
2021/12/23 07:33:59;;;;;;;;;15.75;15.50;;;;;;;;5269899;28;11569;-66
2021/12/23 07:36:30;;;;;;;;;19.25;16.25;;;;;;;;5288294;28;8768;-66
2021/12/23 07:39:01;;;;;;;;;25.00;24.25;;;;;;;;5288183;28;8772;-66
2021/12/23 07:41:33;;;;;;;;;17.25;14.75;;;;;;;;5271100;28;8815;-66
2021/12/23 07:44:07;;;;;;;;;19.25;17.75;;;;;;;;5253266;28;11533;-66
2021/12/23 07:46:58;;;;;;;;;12.00;12.00;;;;;;;;5288644;28;12085;-66
2021/12/23 07:49:29;;;;;;;;;2.00;1.50;;;;;;;;5288293;28;11395;-65
2021/12/23 07:52:00;;;;;;;;;16.00;16.00;;;;;;;;5269835;28;11349;-66
2021/12/23 07:54:32;;;;;;;;;10.50;9.50;;;;;;;;5288381;28;11404;-66
2021/12/23 07:57:04;;;;;;;;;6.75;6.75;;;;;;;;5288645;28;8768;-66
2021/12/23 07:59:35;;;;;;;;;6.00;6.00;;;;;;;;5288078;28;12137;-65
2021/12/23 08:02:25;;;;;;;;;8.75;8.75;;;;;;;;5292592;28;11138;-66
2021/12/23 08:04:55;;;;;;;;;9.75;9.00;;;;;;;;5292320;28;11413;-66
2021/12/23 08:07:26;;;;;;;;;7.00;6.25;;;;;;;;5258550;28;8785;-65
2021/12/23 08:09:58;;;;;;;;;10.00;10.00;;;;;;;;5257562;28;11480;-65
2021/12/23 08:12:29;;;;;;;;;4.00;4.00;;;;;;;;5293198;28;11991;-66
2021/12/23 08:14:59;;;;;;;;;11.00;10.25;;;;;;;;5257160;28;11448;-66
2021/12/23 08:17:30;;;;;;;;;4.00;3.25;;;;;;;;5274613;28;8768;-66
2021/12/23 08:20:02;;;;;;;;;7.50;7.50;;;;;;;;5292235;28;11413;-67
2021/12/23 08:22:34;;;;;;;;;8.25;8.25;;;;;;;;5273964;28;9464;-67
2021/12/23 08:25:05;;;;;;;;;8.00;6.75;;;;;;;;5256852;28;11132;-66
2021/12/23 08:27:37;;;;;;;;;9.50;9.50;;;;;;;;5257109;28;10951;-66
2021/12/23 08:30:09;;;;;;;;;6.50;6.50;;;;;;;;5257242;28;10923;-66
2021/12/23 08:32:40;;;;;;;;;8.50;8.00;;;;;;;;5273794;28;10809;-66
2021/12/23 08:35:11;;;;;;;;;11.00;9.50;;;;;;;;5256924;28;10846;-67
2021/12/23 08:37:45;;;;;;;;;11.50;10.00;;;;;;;;5273709;28;11480;-66
2021/12/23 08:40:22;;;;;;;;;6.25;6.25;;;;;;;;5273695;28;10861;-66
2021/12/23 08:42:54;;;;;;;;;6.00;5.00;;;;;;;;5292267;28;10891;-67
2021/12/23 08:45:26;;;;;;;;;6.75;6.75;;;;;;;;5239677;28;10866;-67
2021/12/23 08:47:58;;;;;;;;;6.50;6.50;;;;;;;;5256644;28;10721;-67
2021/12/23 08:50:30;;;;;;;;;9.00;9.00;;;;;;;;5256504;28;10910;-67
2021/12/23 08:53:02;;;;;;;;;7.00;7.00;;;;;;;;5291658;28;10807;-67
2021/12/23 08:55:34;;;;;;;;;9.75;9.25;;;;;;;;5273740;28;10729;-67
2021/12/23 08:58:23;;;;;;;;;8.00;8.00;;;;;;;;5292396;28;10678;-67
2021/12/23 09:00:54;;;;;;;;;7.00;6.25;;;;;;;;5292278;28;10754;-67
2021/12/23 09:03:26;;;;;;;;;16.00;16.00;;;;;;;;5292569;28;8768;-67
2021/12/23 09:05:56;;;;;;;;;14.50;13.75;;;;;;;;5291821;28;8873;-67
2021/12/23 09:08:27;;;;;;;;;10.00;10.00;;;;;;;;5291428;28;11010;-67
2021/12/23 09:11:16;;;;;;;;;14.50;14.50;;;;;;;;5291841;28;8772;-66
2021/12/23 09:14:06;;;;;;;;;4.50;3.00;;;;;;;;5291095;28;11129;-66
2021/12/23 09:16:38;;;;;;;;;11.25;8.25;;;;;;;;5291103;28;10796;-67
2021/12/23 09:19:27;;;;;;;;;22.00;20.50;;;;;;;;5258903;28;8756;-67
2021/12/23 09:21:58;;;;;;;;;30.75;30.75;;;;;;;;5272476;28;11402;-66
2021/12/23 09:24:29;;;;;;;;;22.75;22.00;;;;;;;;5290739;28;8808;-65
2021/12/23 09:27:12;;;;;;;;;4.50;4.50;;;;;;;;5273376;28;8796;-66
2021/12/23 09:35:04;;;;;;;;;17.00;16.50;;;;;;;;5291311;28;8764;-73
2021/12/23 09:37:35;;;;;;;;;18.75;17.50;;;;;;;;5238451;28;11344;-64
2021/12/23 09:40:06;;;;;;;;;8.75;7.50;;;;;;;;5272755;28;11583;-65
2021/12/23 09:42:37;;;;;;;;;7.50;7.50;;;;;;;;5272384;28;8765;-64
2021/12/23 09:45:11;;;;;;;;;22.00;22.00;;;;;;;;5254750;28;11418;-65
2021/12/23 09:47:43;;;;;;;;;19.00;19.00;;;;;;;;5254792;28;11543;-65
2021/12/23 09:50:15;;;;;;;;;24.00;23.50;;;;;;;;5290259;28;11395;-65
2021/12/23 09:53:05;;;;;;;;;23.50;22.50;;;;;;;;5275028;28;11424;-65
2021/12/23 09:55:37;;;;;;;;;15.25;15.25;;;;;;;;5238422;28;11485;-65
2021/12/23 09:58:08;;;;;;;;;23.75;22.75;;;;;;;;5271777;28;11583;-65
2021/12/23 10:00:45;;;;;;;;;18.50;17.00;;;;;;;;5289786;28;11530;-65
2021/12/23 10:03:18;;;;;;;;;15.50;15.50;;;;;;;;5271946;28;11446;-65
2021/12/23 10:05:49;;;;;;;;;34.50;32.00;;;;;;;;5289713;28;11439;-66
2021/12/23 10:08:40;;;;;;;;;34.75;32.50;;;;;;;;5274578;28;11460;-65
2021/12/23 10:12:01;;;;;;;;;17.75;15.75;;;;;;;;5271527;28;12128;-65
2021/12/23 10:32:12;;;;;;;;;18.75;16.75;;;;;;;;5254450;28;11407;-64
2021/12/23 10:37:26;;;;;;;;;32.00;32.00;;;;;;;;5290159;28;11476;-64
2021/12/23 10:40:02;;;;;;;;;23.00;23.00;;;;;;;;5288862;28;11478;-65
2021/12/23 10:42:33;;;;;;;;;2.00;2.00;;;;;;;;5271631;28;12184;-65
2021/12/23 10:45:06;;;;;;;;;9.25;9.25;;;;;;;;5289082;28;11525;-65
2021/12/23 10:47:53;;;;;;;;;14.00;13.50;;;;;;;;5237723;28;11430;-65
2021/12/23 10:50:30;;;;;;;;;17.50;17.50;;;;;;;;5271381;28;11373;-64
2021/12/23 10:53:05;;;;;;;;;7.50;7.50;;;;;;;;5237497;28;11400;-65
2021/12/23 10:58:26;;;;;;;;;16.50;16.00;;;;;;;;5290112;28;11348;-65
2021/12/23 11:01:00;;;;;;;;;9.50;9.50;;;;;;;;5271657;28;11446;-66
2021/12/23 11:03:51;;;;;;;;;11.00;11.00;;;;;;;;5273580;28;9451;-65
2021/12/23 11:06:30;;;;;;;;;7.00;7.00;;;;;;;;5237180;28;11362;-65
2021/12/23 11:09:52;;;;;;;;;5.75;5.75;;;;;;;;5237443;28;11156;-65
2021/12/23 11:38:18;;;;;;;;;8.50;8.50;;;;;;;;5170788;28;11468;-65
2021/12/23 11:40:53;;;;;;;;;8.00;8.00;;;;;;;;5246368;28;11341;-65
2021/12/23 11:43:46;;;;;;;;;15.75;15.75;;;;;;;;5270577;28;11386;-65
2021/12/23 11:46:22;;;;;;;;;10.00;10.00;;;;;;;;5253856;28;12160;-65
2021/12/23 11:48:55;;;;;;;;;9.00;9.00;;;;;;;;5270227;28;11359;-66
2021/12/23 11:51:31;;;;;;;;;14.50;14.50;;;;;;;;5270071;28;11500;-64
2021/12/23 11:54:04;;;;;;;;;11.50;11.00;;;;;;;;5253594;28;11404;-65
2021/12/23 11:56:38;;;;;;;;;9.00;6.75;;;;;;;;5253119;28;11441;-65
2021/12/23 11:59:11;;;;;;;;;10.00;10.00;;;;;;;;5270096;28;11499;-65
2021/12/23 12:01:42;;;;;;;;;12.00;11.00;;;;;;;;5270081;28;12110;-65
2021/12/23 12:04:28;;;;;;;;;14.00;14.00;;;;;;;;5252931;28;11366;-65
2021/12/23 12:06:59;;;;;;;;;11.75;11.75;;;;;;;;5254060;28;11509;-65
2021/12/23 12:09:54;;;;;;;;;8.25;4.50;;;;;;;;5288203;28;11349;-66
2021/12/23 12:12:26;;;;;;;;;10.00;9.50;;;;;;;;5236333;28;11360;-66
2021/12/23 12:14:58;;;;;;;;;6.00;4.00;;;;;;;;5236703;28;11447;-66
2021/12/23 12:17:33;;;;;;;;;8.75;8.75;;;;;;;;5270513;28;11335;-66
2021/12/23 12:20:09;;;;;;;;;6.75;3.75;;;;;;;;5236605;28;11379;-66
2021/12/23 12:22:55;;;;;;;;;21.75;21.75;;;;;;;;5253117;28;11359;-66
2021/12/23 12:25:26;;;;;;;;;21.00;18.25;;;;;;;;5253018;28;11468;-66
2021/12/23 12:27:56;;;;;;;;;18.25;18.25;;;;;;;;5269750;28;11392;-66
2021/12/23 12:30:41;;;;;;;;;27.50;26.75;;;;;;;;5269448;28;8761;-65
2021/12/23 12:33:33;;;;;;;;;16.75;15.50;;;;;;;;5253671;28;8780;-66
2021/12/23 12:36:04;;;;;;;;;13.50;13.50;;;;;;;;5287725;28;11435;-66
2021/12/23 12:38:37;;;;;;;;;4.00;3.00;;;;;;;;5252690;28;11395;-65
2021/12/23 12:41:17;;;;;;;;;22.50;22.50;;;;;;;;5269584;28;11392;-65
2021/12/23 12:44:35;;;;;;;;;23.25;23.25;;;;;;;;5269641;28;11529;-66
2021/12/23 12:49:47;;;;;;;;;16.00;15.50;;;;;;;;5291211;28;11543;-67
2021/12/23 12:52:20;;;;;;;;;13.75;13.75;;;;;;;;5257189;28;11438;-66
2021/12/23 12:54:53;;;;;;;;;15.25;14.75;;;;;;;;5240012;28;11408;-67
2021/12/23 12:57:31;;;;;;;;;18.25;18.25;;;;;;;;5291400;28;11373;-66
2021/12/23 13:00:15;;;;;;;;;5.00;4.00;;;;;;;;5273957;28;11371;-67
2021/12/23 13:11:32;;;;;;;;;25.25;25.25;;;;;;;;5291014;28;11310;-66
2021/12/23 13:14:50;;;;;;;;;25.25;23.00;;;;;;;;5277706;28;11470;-68
2021/12/23 13:17:53;;;;;;;;;31.00;28.00;;;;;;;;5291009;28;12274;-67
2021/12/23 13:20:35;;;;;;;;;17.25;16.25;;;;;;;;5256214;28;11476;-66
2021/12/23 13:23:08;;;;;;;;;9.75;9.75;;;;;;;;5255870;28;11543;-65
2021/12/23 13:25:53;;;;;;;;;27.75;25.75;;;;;;;;5255917;28;11535;-68
2021/12/23 13:28:27;;;;;;;;;44.00;36.25;;;;;;;;5272990;28;11446;-67
2021/12/23 13:30:58;;;;;;;;;35.00;29.75;;;;;;;;5255620;28;11467;-66
2021/12/23 13:33:29;;;;;;;;;29.00;27.50;;;;;;;;5256271;28;12186;-67
2021/12/23 13:36:00;;;;;;;;;27.75;26.75;;;;;;;;5291336;28;11489;-66
2021/12/23 13:38:33;;;;;;;;;20.25;20.25;;;;;;;;5290666;28;11393;-67
2021/12/23 13:49:58;;;;;;;;;6.50;6.25;;;;;;;;5289906;28;11376;-67
2021/12/23 13:52:29;;;;;;;;;12.75;12.75;;;;;;;;5238524;28;11350;-67
2021/12/23 13:55:23;;;;;;;;;17.00;17.00;;;;;;;;5255320;28;11394;-68
2021/12/23 13:57:56;;;;;;;;;12.00;11.25;;;;;;;;5242176;28;8769;-68
2021/12/23 14:00:31;;;;;;;;;8.75;8.75;;;;;;;;5255448;28;12089;-69
2021/12/23 14:03:05;;;;;;;;;13.00;12.75;;;;;;;;5255317;28;12009;-66
2021/12/23 14:05:40;;;;;;;;;6.25;6.25;;;;;;;;5238320;28;11387;-68
2021/12/23 14:08:13;;;;;;;;;6.00;4.00;;;;;;;;5254842;28;12026;-69
2021/12/23 14:10:45;;;;;;;;;9.00;8.50;;;;;;;;5238251;28;11356;-69
2021/12/23 14:13:17;;;;;;;;;6.00;6.00;;;;;;;;5237956;28;11358;-66
2021/12/23 14:16:01;;;;;;;;;9.25;7.75;;;;;;;;5256876;28;11382;-68
2021/12/23 14:19:15;;;;;;;;;18.50;16.50;;;;;;;;5273827;28;11377;-67
2021/12/23 14:24:56;;;;;;;;;18.50;17.00;;;;;;;;5289720;28;11464;-67
2021/12/23 14:27:27;;;;;;;;;44.00;35.25;;;;;;;;5289938;28;11442;-68
2021/12/23 14:30:16;;;;;;;;;11.25;9.50;;;;;;;;5289871;28;8761;-66
2021/12/23 14:33:05;;;;;;;;;35.00;32.00;;;;;;;;5271932;28;11421;-68
2021/12/23 14:35:36;;;;;;;;;26.00;26.00;;;;;;;;5272280;28;8780;-68
2021/12/23 14:38:07;;;;;;;;;21.75;21.25;;;;;;;;5254276;28;11445;-68
2021/12/23 14:40:38;;;;;;;;;12.25;12.25;;;;;;;;5271173;28;11481;-66
2021/12/23 14:43:09;;;;;;;;;24.00;22.00;;;;;;;;5238422;28;8789;-67
2021/12/23 14:45:42;;;;;;;;;35.00;33.50;;;;;;;;5237645;28;8820;-67
2021/12/23 14:52:42;;;;;;;;;33.50;33.00;;;;;;;;5289056;28;11400;-67
2021/12/23 14:55:14;;;;;;;;;11.00;10.50;;;;;;;;5254427;28;11471;-66
2021/12/23 14:58:05;;;;;;;;;15.50;15.50;;;;;;;;5274271;28;11449;-65
2021/12/23 15:00:54;;;;;;;;;33.00;28.75;;;;;;;;5274546;28;11425;-65
2021/12/23 15:03:25;;;;;;;;;31.25;30.25;;;;;;;;5271087;28;11496;-65
2021/12/23 15:06:05;;;;;;;;;29.75;28.25;;;;;;;;5289132;28;8842;-65
2021/12/23 15:08:42;;;;;;;;;45.00;44.25;;;;;;;;5237554;28;11456;-66
2021/12/23 15:11:13;;;;;;;;;44.75;41.50;;;;;;;;5288817;28;11533;-68
2021/12/23 15:13:46;;;;;;;;;37.25;32.25;;;;;;;;5253525;28;11473;-65
2021/12/23 15:16:18;;;;;;;;;27.25;27.25;;;;;;;;5270146;28;8784;-66
2021/12/23 15:19:07;;;;;;;;;33.25;32.25;;;;;;;;5237901;28;11459;-66
2021/12/23 15:21:59;;;;;;;;;0.00;0.00;;;;;;;;5273637;28;11530;-65
2021/12/23 15:24:31;;;;;;;;;34.00;31.75;;;;;;;;5236756;28;11406;-65
2021/12/23 15:27:04;;;;;;;;;28.50;27.00;;;;;;;;5236630;28;11590;-65
2021/12/23 15:33:58;;;;;;;;;12.25;12.25;;;;;;;;5288253;28;11465;-65
2021/12/23 15:36:29;;;;;;;;;17.50;17.00;;;;;;;;5253581;28;11492;-66
2021/12/23 15:39:00;;;;;;;;;15.50;15.50;;;;;;;;5270170;28;8777;-65
2021/12/23 15:41:31;;;;;;;;;20.50;18.50;;;;;;;;5270517;28;8800;-65
2021/12/23 15:44:02;;;;;;;;;10.00;9.25;;;;;;;;5269846;28;8900;-64
2021/12/23 15:46:33;;;;;;;;;11.00;5.75;;;;;;;;5253359;28;8776;-67
2021/12/23 15:49:04;;;;;;;;;13.25;12.50;;;;;;;;5269931;28;11370;-65
2021/12/23 15:51:37;;;;;;;;;12.00;11.50;;;;;;;;5288442;28;12056;-65
2021/12/23 15:54:27;;;;;;;;;16.50;16.00;;;;;;;;5288855;28;8863;-65
2021/12/23 15:56:58;;;;;;;;;23.00;23.00;;;;;;;;5253452;28;11392;-66
2021/12/23 15:59:30;;;;;;;;;36.25;36.25;;;;;;;;5253000;28;11441;-65
2021/12/23 16:02:02;;;;;;;;;31.50;31.50;;;;;;;;5252475;28;11492;-68
2021/12/23 16:04:34;;;;;;;;;26.50;21.75;;;;;;;;5288469;28;11493;-65
2021/12/23 16:11:41;;;;;;;;;18.75;18.50;;;;;;;;5287935;28;11474;-65
2021/12/23 16:14:11;;;;;;;;;27.50;27.50;;;;;;;;5287828;28;11469;-66
2021/12/23 16:16:42;;;;;;;;;39.50;37.00;;;;;;;;5270920;28;8776;-65
2021/12/23 16:19:13;;;;;;;;;18.25;18.25;;;;;;;;5288245;28;8811;-65
2021/12/23 16:21:44;;;;;;;;;17.75;17.00;;;;;;;;5271463;28;11419;-66
2021/12/23 16:24:15;;;;;;;;;15.00;15.00;;;;;;;;5273943;28;8816;-66
2021/12/23 16:26:46;;;;;;;;;2.00;2.00;;;;;;;;5292344;28;8879;-66
2021/12/23 16:29:16;;;;;;;;;15.75;12.75;;;;;;;;5274290;28;8785;-67
2021/12/23 16:32:06;;;;;;;;;17.75;17.75;;;;;;;;5276786;28;8936;-68
2021/12/23 16:34:37;;;;;;;;;16.00;14.25;;;;;;;;5240535;28;11438;-65
2021/12/23 16:37:08;;;;;;;;;17.50;17.50;;;;;;;;5291523;28;11670;-65
2021/12/23 16:39:38;;;;;;;;;21.00;16.00;;;;;;;;5291870;28;8784;-66
2021/12/23 16:42:10;;;;;;;;;11.00;11.00;;;;;;;;5274457;28;9502;-65
2021/12/23 16:44:41;;;;;;;;;2.75;1.00;;;;;;;;5257304;28;12278;-65
2021/12/23 16:47:12;;;;;;;;;12.75;12.75;;;;;;;;5256510;28;11355;-65
2021/12/23 16:50:02;;;;;;;;;7.50;7.50;;;;;;;;5259561;28;11533;-65
2021/12/23 16:52:35;;;;;;;;;9.00;9.00;;;;;;;;5239758;28;11442;-65
2021/12/23 16:55:15;;;;;;;;;10.00;10.00;;;;;;;;5239696;28;11345;-65
2021/12/23 16:57:46;;;;;;;;;1.00;1.00;;;;;;;;5240173;28;11430;-65
2021/12/23 17:00:18;;;;;;;;;21.50;17.50;;;;;;;;5273559;28;11388;-65
2021/12/23 17:02:50;;;;;;;;;6.00;6.00;;;;;;;;5240151;28;8780;-64
2021/12/23 17:05:23;;;;;;;;;15.50;15.25;;;;;;;;5256235;28;11434;-65
2021/12/23 17:07:54;;;;;;;;;18.50;17.00;;;;;;;;5291598;28;11382;-65